HALF-HOURLY OBSERVATIONS INDEX

077

Mallee - south

HOPETOUN AIRPORT

Site: 077010
Alt: 77.3m
87km NNE of DIMBOOLA


  Time     Wind        Temp  DP   Baro     Rain since   Rain past  Vis(m), Cloud(base in m), Weather
  local        km/h                         9am  last   hr   10m    
Mon 11:00  SSE 17/ 26  22.4 12.4  1018.3    0.0   0.0   0.0   0.0   ----- 
Mon 11:30   SE 15/ 22  23.3 12.0  1018.3    0.0   0.0   0.0   0.0   ----- 
Mon 12:00  SSE 15/ 26  24.0 11.3  1018.2    0.0   0.0   0.0   0.0   ----- 
Mon 12:30    S 17/ 28  24.9 11.1  1017.8    0.0   0.0   0.0   0.0   ----- 
Mon 13:00  SSE 13/ 22  25.2 11.0  1017.6    0.0   0.0   0.0   0.0   ----- 
Mon 13:30   SE  9/ 17  26.5 11.0  1017.2    0.0   0.0   0.0   0.0   ----- 
Mon 14:00  SSW 19/ 22  27.4  9.7  1017.1    0.0   0.0   0.0   0.0   ----- 
Mon 14:30    S 11/ 26  29.3  9.9  1016.5    0.0   0.0   0.0   0.0   ----- 
Mon 15:00  SSW 11/ 20  28.4  8.1  1016.3    0.0   0.0   0.0   0.0   ----- 
Mon 15:30    S 13/ 24  27.8  7.1  1015.9    0.0   0.0   0.0   0.0   ----- 
Mon 16:00    S 15/ 24  28.8  5.0  1015.5    0.0   0.0   0.0   0.0   ----- 
Mon 16:30    S 13/ 20  28.2  5.1  1015.1    0.0   0.0   0.0   0.0   ----- 

SWAN HILL AERODROME

Site: 077094
Alt: 71.0m
4km SSW of SWAN HILL


  Time     Wind        Temp  DP   Baro     Rain since   Rain past  Vis(m), Cloud(base in m), Weather
  local        km/h                         9am  last   hr   10m    
Mon 11:00  SSE 17/ 24  23.8 11.5  1017.0    0.0   0.0   0.0   0.0   10000 
Mon 11:30  SSE 17/ 26  25.3 11.8  1017.0    0.0   0.0   0.0   0.0   10000 
Mon 12:00  SSE 17/ 26  26.8 11.7  1016.7    0.0   0.0   0.0   0.0   10000 
Mon 12:30   SE 19/ 30  26.9 10.6  1016.6    0.0   0.0   0.0   0.0   10000 
Mon 13:00  SSE 19/ 28  27.9 10.6  1016.3    0.0   0.0   0.0   0.0   10000 
Mon 13:30  SSE 19/ 24  28.5 10.2  1016.1    0.0   0.0   0.0   0.0   10000 
Mon 14:00  ESE 15/ 24  30.1 11.6  1015.7    0.0   0.0   0.0   0.0   10000 
Mon 14:30  SSE 13/ 24  29.4 11.0  1015.4    0.0   0.0   0.0   0.0   10000 
Mon 15:00    S 13/ 19  30.5 11.0  1015.0    0.0   0.0   0.0   0.0   10000 
Mon 15:30  SSE 13/ 24  30.9 11.8  1014.6    0.0   0.0   0.0   0.0   10000 
Mon 16:00   SE 11/ 20  30.2 10.7  1014.3    0.0   0.0   0.0   0.0   10000 
Mon 16:30  SSE 13/ 22  30.8 10.7  1013.8    0.0   0.0   0.0   0.0   10000